Time;durP1;ratioP1;P1;durP2;ratioP2;P2;SDS_P1;SDS_P2;PMS_P1;PMS_P2;Temp;Humidity;BMP_temperature;BMP_pressure;BME280_temperature;BME280_humidity;BME280_pressure;Samples;Min_cycle;Max_cycle;Signal;HPM_P1;HPM_P2
2023/12/01 00:00:47;;;;;;;38.97;16.70;;;-1.00;99.90;;;;;;5111501;28;20047;-80
2023/12/01 00:03:33;;;;;;;40.00;16.33;;;-1.00;99.90;;;;;;5078976;28;20457;-80
2023/12/01 00:06:19;;;;;;;45.42;15.48;;;-0.90;99.90;;;;;;5078967;28;20052;-79
2023/12/01 00:09:05;;;;;;;44.33;17.65;;;-0.90;99.90;;;;;;5109889;28;20407;-78
2023/12/01 00:11:51;;;;;;;41.88;16.67;;;-0.80;99.90;;;;;;5110300;28;20051;-79
2023/12/01 00:14:40;;;;;;;44.53;17.60;;;-0.70;99.90;;;;;;5110474;28;20039;-79
2023/12/01 00:17:26;;;;;;;45.05;19.33;;;-0.70;99.90;;;;;;5112134;27;20060;-79
2023/12/01 00:20:12;;;;;;;47.65;17.80;;;-0.70;99.90;;;;;;5109689;28;20518;-78
2023/12/01 00:22:59;;;;;;;46.33;17.98;;;-0.70;99.90;;;;;;5110469;28;20040;-79
2023/12/01 00:25:45;;;;;;;39.85;17.52;;;-0.70;99.90;;;;;;5091751;28;20047;-79
2023/12/01 00:28:31;;;;;;;38.75;16.48;;;-0.70;99.90;;;;;;5109990;28;20047;-79
2023/12/01 00:31:17;;;;;;;42.13;15.73;;;-0.70;99.90;;;;;;5111170;28;20058;-79
2023/12/01 00:34:04;;;;;;;42.10;16.02;;;-0.80;99.90;;;;;;5110067;28;20449;-80
2023/12/01 00:36:50;;;;;;;43.72;17.80;;;-0.70;99.90;;;;;;5098696;28;20158;-80
2023/12/01 00:39:36;;;;;;;50.22;19.80;;;-0.70;99.90;;;;;;5095506;28;20055;-80
2023/12/01 00:42:22;;;;;;;51.67;19.35;;;-0.70;99.90;;;;;;5114741;28;20576;-79
2023/12/01 00:45:08;;;;;;;47.83;16.98;;;-0.70;99.90;;;;;;5114366;28;20058;-79
2023/12/01 00:47:54;;;;;;;49.83;16.35;;;-0.70;99.90;;;;;;5114151;28;20499;-79
2023/12/01 00:50:40;;;;;;;60.25;20.42;;;-0.70;99.90;;;;;;5115132;28;20124;-79
2023/12/01 00:53:26;;;;;;;48.85;17.23;;;-0.60;99.90;;;;;;5113619;28;20056;-79
2023/12/01 00:56:12;;;;;;;51.72;19.05;;;-0.70;99.90;;;;;;5113708;28;20135;-79
2023/12/01 00:58:58;;;;;;;54.40;20.27;;;-0.70;99.90;;;;;;5114920;28;20048;-79
2023/12/01 01:01:44;;;;;;;58.95;19.70;;;-0.70;99.90;;;;;;5115018;28;20044;-79
2023/12/01 01:04:30;;;;;;;51.75;20.48;;;-0.80;99.90;;;;;;5113687;28;20134;-78
2023/12/01 01:07:16;;;;;;;50.33;16.95;;;-0.90;99.90;;;;;;5096457;28;20059;-79
2023/12/01 01:10:03;;;;;;;45.67;18.10;;;-0.80;99.90;;;;;;5114462;28;20101;-79
2023/12/01 01:12:48;;;;;;;49.00;18.30;;;-0.90;99.90;;;;;;5082828;28;20052;-79
2023/12/01 01:15:35;;;;;;;47.65;17.83;;;-0.90;99.90;;;;;;5096895;28;20043;-80
2023/12/01 01:18:21;;;;;;;42.72;17.40;;;-0.90;99.90;;;;;;5114513;28;20043;-79
2023/12/01 01:21:07;;;;;;;36.33;14.52;;;-0.90;99.90;;;;;;5099220;28;20047;-78
2023/12/01 01:23:53;;;;;;;36.65;14.63;;;-1.00;99.90;;;;;;5114092;28;20058;-79
2023/12/01 01:26:39;;;;;;;35.03;15.65;;;-1.00;99.90;;;;;;5095108;28;20054;-79
2023/12/01 01:29:25;;;;;;;34.20;16.20;;;-1.00;99.90;;;;;;5114327;28;20117;-79
2023/12/01 01:32:12;;;;;;;34.63;14.98;;;-1.10;99.90;;;;;;5112808;28;20059;-79
2023/12/01 01:34:58;;;;;;;28.73;14.13;;;-1.10;99.90;;;;;;5113641;28;20128;-78
2023/12/01 01:37:44;;;;;;;37.50;15.55;;;-1.10;99.90;;;;;;5113208;28;20504;-79
2023/12/01 01:40:30;;;;;;;36.55;15.23;;;-1.20;99.90;;;;;;5094922;28;20054;-78
2023/12/01 01:43:21;;;;;;;30.15;12.48;;;-1.20;99.90;;;;;;5114233;28;20051;-80
2023/12/01 01:46:11;;;;;;;28.90;13.82;;;-1.30;99.90;;;;;;5094051;28;20054;-80
2023/12/01 01:48:57;;;;;;;30.75;15.55;;;-1.30;99.90;;;;;;5095513;28;20067;-80
2023/12/01 01:51:44;;;;;;;28.90;14.05;;;-1.40;99.90;;;;;;5114462;27;20043;-80
2023/12/01 01:54:30;;;;;;;35.22;14.05;;;-1.50;99.90;;;;;;5095342;28;20040;-80
2023/12/01 01:57:17;;;;;;;32.95;14.57;;;-1.50;99.90;;;;;;5113868;28;20138;-79
2023/12/01 02:00:05;;;;;;;34.97;16.30;;;-1.50;99.90;;;;;;5112931;28;20503;-79
2023/12/01 02:02:51;;;;;;;28.10;13.50;;;-1.60;99.90;;;;;;5113710;28;20134;-79
2023/12/01 02:05:37;;;;;;;35.25;14.63;;;-1.60;99.90;;;;;;5113511;28;20044;-80
2023/12/01 02:08:28;;;;;;;32.35;14.80;;;-1.60;99.90;;;;;;5098195;28;20139;-80
2023/12/01 02:11:14;;;;;;;28.95;12.95;;;-1.70;99.90;;;;;;5112460;28;20057;-79
2023/12/01 02:14:00;;;;;;;31.90;14.02;;;-1.70;99.90;;;;;;5113294;28;20051;-79
2023/12/01 02:16:46;;;;;;;32.15;14.43;;;-1.80;99.90;;;;;;5081211;28;20055;-79
2023/12/01 02:19:32;;;;;;;39.70;15.45;;;-1.90;99.90;;;;;;5093787;28;20078;-81
2023/12/01 02:22:18;;;;;;;38.22;14.52;;;-1.90;99.90;;;;;;5094699;28;20052;-80
2023/12/01 02:25:05;;;;;;;37.65;15.80;;;-1.90;99.90;;;;;;5092824;28;20509;-79
2023/12/01 02:27:51;;;;;;;32.80;14.68;;;-2.00;99.90;;;;;;5111531;28;20138;-80
2023/12/01 02:30:37;;;;;;;37.45;15.25;;;-2.00;99.90;;;;;;5096539;28;20158;-80
2023/12/01 02:33:23;;;;;;;36.78;15.13;;;-2.00;99.90;;;;;;5081314;28;20404;-80
2023/12/01 02:36:11;;;;;;;39.83;15.38;;;-2.10;99.90;;;;;;5113162;28;20054;-81
2023/12/01 02:38:57;;;;;;;37.03;14.50;;;-2.10;99.90;;;;;;5112193;28;20488;-81
2023/12/01 02:41:43;;;;;;;32.72;15.07;;;-2.20;99.90;;;;;;5103321;28;20048;-78
2023/12/01 02:44:30;;;;;;;32.28;14.88;;;-2.30;99.90;;;;;;5112940;28;20051;-78
2023/12/01 02:47:15;;;;;;;41.40;16.25;;;-2.30;99.90;;;;;;5112974;28;20205;-79
2023/12/01 02:50:02;;;;;;;37.08;15.73;;;-2.30;99.90;;;;;;5112127;28;20048;-76
2023/12/01 02:52:47;;;;;;;36.95;14.93;;;-2.30;99.90;;;;;;5112169;28;20120;-77
2023/12/01 02:55:34;;;;;;;38.10;16.15;;;-2.40;99.90;;;;;;5112639;28;20047;-77
2023/12/01 02:58:20;;;;;;;36.80;14.77;;;-2.40;99.90;;;;;;5110802;28;20127;-77
2023/12/01 03:01:06;;;;;;;41.83;16.73;;;-2.40;99.90;;;;;;5111532;28;20059;-77
2023/12/01 03:03:52;;;;;;;37.70;15.60;;;-2.50;99.90;;;;;;5111664;28;20101;-77
2023/12/01 03:06:38;;;;;;;42.83;16.40;;;-2.50;99.90;;;;;;5111794;28;20066;-77
2023/12/01 03:09:24;;;;;;;38.08;15.65;;;-2.50;99.90;;;;;;5111081;28;20135;-78
2023/12/01 03:12:10;;;;;;;35.72;15.30;;;-2.50;99.90;;;;;;5110191;28;20077;-78
2023/12/01 03:14:58;;;;;;;43.00;16.48;;;-2.60;99.90;;;;;;5097083;28;20066;-79
2023/12/01 03:17:44;;;;;;;41.25;16.25;;;-2.60;99.90;;;;;;5111308;28;20516;-78
2023/12/01 03:20:31;;;;;;;36.00;13.88;;;-2.60;99.90;;;;;;5109511;28;20058;-77
2023/12/01 03:23:17;;;;;;;39.67;15.80;;;-2.60;99.90;;;;;;5111883;28;20415;-77
2023/12/01 03:26:03;;;;;;;43.78;16.15;;;-2.60;99.90;;;;;;5129934;28;20139;-77
2023/12/01 03:28:49;;;;;;;42.33;16.08;;;-2.70;99.90;;;;;;5111626;28;20104;-77
2023/12/01 03:31:35;;;;;;;38.75;15.07;;;-2.60;99.90;;;;;;5110849;28;20059;-77
2023/12/01 03:34:21;;;;;;;46.53;16.92;;;-2.60;99.90;;;;;;5129505;28;20077;-77
2023/12/01 03:37:08;;;;;;;43.65;16.33;;;-2.60;99.90;;;;;;5130968;28;20050;-77
2023/12/01 03:39:54;;;;;;;43.53;16.38;;;-2.70;99.90;;;;;;5128885;28;20502;-76
2023/12/01 03:42:48;;;;;;;41.55;17.40;;;-2.70;99.90;;;;;;5111766;28;20047;-77
2023/12/01 03:45:34;;;;;;;40.13;16.23;;;-2.70;99.90;;;;;;5110315;28;20055;-77
2023/12/01 03:48:20;;;;;;;44.30;18.00;;;-2.70;99.90;;;;;;5130063;28;20053;-77
2023/12/01 03:51:09;;;;;;;44.40;16.45;;;-2.70;99.90;;;;;;5130196;28;20144;-77
2023/12/01 03:53:55;;;;;;;40.58;16.40;;;-2.80;99.90;;;;;;5129980;28;20066;-77
2023/12/01 03:56:41;;;;;;;43.33;15.43;;;-2.80;99.90;;;;;;5110210;28;20134;-78
2023/12/01 03:59:27;;;;;;;47.90;20.42;;;-2.80;99.90;;;;;;5097845;28;20054;-77
2023/12/01 04:02:13;;;;;;;39.90;14.52;;;-2.90;99.90;;;;;;5128693;28;20130;-77
2023/12/01 04:04:59;;;;;;;37.92;15.57;;;-2.90;99.90;;;;;;5097313;28;20494;-77
2023/12/01 04:07:50;;;;;;;37.50;14.98;;;-3.00;99.90;;;;;;5098331;28;20061;-76
2023/12/01 04:10:36;;;;;;;43.65;15.50;;;-3.00;99.90;;;;;;5110471;28;20051;-78
2023/12/01 04:13:22;;;;;;;33.55;13.82;;;-3.10;99.90;;;;;;5130190;28;20043;-77
2023/12/01 04:16:08;;;;;;;35.22;14.70;;;-3.10;99.90;;;;;;5128374;27;20059;-77
2023/12/01 04:18:54;;;;;;;35.33;14.68;;;-3.20;99.90;;;;;;5129160;28;20043;-78
2023/12/01 04:21:40;;;;;;;35.42;13.90;;;-3.20;99.90;;;;;;5115832;28;20054;-78
2023/12/01 04:24:28;;;;;;;36.42;14.25;;;-3.20;99.90;;;;;;5068637;28;1133322;-77
2023/12/01 04:27:14;;;;;;;34.88;13.32;;;-3.30;99.90;;;;;;5109042;28;20086;-77
2023/12/01 04:30:00;;;;;;;38.13;13.30;;;-3.30;99.90;;;;;;5111055;28;20461;-77
2023/12/01 04:32:55;;;;;;;38.13;14.68;;;-3.40;99.90;;;;;;5110828;28;20059;-78
2023/12/01 04:35:41;;;;;;;39.90;15.60;;;-3.40;99.90;;;;;;5111107;28;20052;-78
2023/12/01 04:38:27;;;;;;;30.48;13.30;;;-3.40;99.90;;;;;;5095486;28;20051;-77
2023/12/01 04:41:13;;;;;;;37.65;14.82;;;-3.50;99.90;;;;;;5110535;28;20051;-77
2023/12/01 04:43:59;;;;;;;42.13;16.85;;;-3.40;99.90;;;;;;5109771;28;20052;-77
2023/12/01 04:46:45;;;;;;;37.60;14.98;;;-3.40;99.90;;;;;;5108305;28;20162;-77
2023/12/01 04:49:31;;;;;;;35.30;12.95;;;-3.40;99.90;;;;;;5109901;28;20568;-77
2023/12/01 04:52:17;;;;;;;36.13;15.20;;;-3.40;99.90;;;;;;5109105;28;20044;-77
2023/12/01 04:55:04;;;;;;;33.17;12.57;;;-3.50;99.90;;;;;;5110799;28;20070;-77
2023/12/01 04:57:51;;;;;;;37.28;13.98;;;-3.50;99.90;;;;;;5110108;28;20079;-77
2023/12/01 05:00:37;;;;;;;36.47;13.98;;;-3.60;99.90;;;;;;5108288;28;20052;-77
2023/12/01 05:03:23;;;;;;;31.60;13.40;;;-3.60;99.90;;;;;;5109647;28;20043;-77
2023/12/01 05:06:09;;;;;;;32.13;12.85;;;-3.60;99.90;;;;;;5109654;28;20052;-76
2023/12/01 05:08:55;;;;;;;42.95;14.93;;;-3.70;99.90;;;;;;5110104;28;20088;-77
2023/12/01 05:11:42;;;;;;;37.38;14.55;;;-3.60;99.90;;;;;;5110240;28;20052;-77
2023/12/01 05:14:28;;;;;;;35.67;14.00;;;-3.60;99.90;;;;;;5108829;28;20572;-79
2023/12/01 05:17:14;;;;;;;39.50;15.35;;;-3.60;99.90;;;;;;5109921;28;20067;-77
2023/12/01 05:20:00;;;;;;;35.90;14.05;;;-3.70;99.90;;;;;;5108922;28;20063;-78
2023/12/01 05:22:51;;;;;;;32.42;13.32;;;-3.70;99.90;;;;;;5112626;28;20055;-77
2023/12/01 05:25:39;;;;;;;41.95;14.52;;;-3.70;99.90;;;;;;5112834;28;20062;-77
2023/12/01 05:28:25;;;;;;;41.47;15.80;;;-3.80;99.90;;;;;;5113766;28;20395;-76
2023/12/01 05:31:11;;;;;;;34.80;13.75;;;-3.80;99.90;;;;;;5112015;28;20434;-77
2023/12/01 05:33:57;;;;;;;38.78;15.55;;;-3.80;99.90;;;;;;5113751;28;20445;-78
2023/12/01 05:36:43;;;;;;;36.70;14.23;;;-3.90;99.90;;;;;;5112374;28;20555;-77
2023/12/01 05:39:29;;;;;;;35.58;13.80;;;-3.80;99.90;;;;;;5113600;28;20047;-77
2023/12/01 05:42:15;;;;;;;30.92;11.98;;;-3.80;99.90;;;;;;5113442;28;20495;-76
2023/12/01 05:45:02;;;;;;;35.50;12.82;;;-3.90;99.90;;;;;;5111366;28;20052;-77
2023/12/01 05:47:52;;;;;;;31.63;11.80;;;-3.90;99.90;;;;;;5112827;28;20128;-77
2023/12/01 05:50:42;;;;;;;37.90;13.82;;;-3.90;99.90;;;;;;5113520;28;20407;-78
2023/12/01 05:53:28;;;;;;;35.55;13.55;;;-3.90;99.90;;;;;;5111880;28;20051;-78
2023/12/01 05:56:14;;;;;;;33.30;13.40;;;-3.90;99.90;;;;;;5112803;28;20108;-78
2023/12/01 05:59:04;;;;;;;39.42;14.13;;;-3.90;99.90;;;;;;5113406;28;20044;-76
2023/12/01 06:01:50;;;;;;;32.78;12.77;;;-4.00;99.90;;;;;;5098195;28;20050;-77
2023/12/01 06:04:38;;;;;;;36.47;13.45;;;-3.90;99.90;;;;;;5113893;28;20055;-77
2023/12/01 06:07:24;;;;;;;35.78;12.18;;;-4.00;99.90;;;;;;5112710;28;20487;-77
2023/12/01 06:10:13;;;;;;;34.00;12.93;;;-4.10;99.90;;;;;;5113072;28;20059;-78
2023/12/01 06:12:59;;;;;;;32.10;12.15;;;-4.00;99.90;;;;;;5111440;28;20051;-77
2023/12/01 06:15:45;;;;;;;34.60;14.20;;;-4.00;99.90;;;;;;5111545;28;20047;-78
2023/12/01 06:18:34;;;;;;;33.55;12.70;;;-4.10;99.90;;;;;;5112841;28;20047;-77
2023/12/01 06:21:19;;;;;;;38.45;13.85;;;-4.10;99.90;;;;;;5111874;28;20483;-80
2023/12/01 06:24:06;;;;;;;34.13;13.65;;;-4.10;99.90;;;;;;5119740;27;20047;-76
2023/12/01 06:26:52;;;;;;;31.35;12.30;;;-4.10;99.90;;;;;;5132867;27;20134;-76
2023/12/01 06:29:38;;;;;;;32.65;12.07;;;-4.10;99.90;;;;;;5114643;27;20086;-76
2023/12/01 06:32:24;;;;;;;31.98;12.20;;;-4.10;99.90;;;;;;5113262;27;20384;-76
2023/12/01 06:35:15;;;;;;;31.17;13.70;;;-4.10;99.90;;;;;;5112859;27;20058;-78
2023/12/01 06:38:02;;;;;;;31.73;12.70;;;-4.10;99.90;;;;;;5099591;27;20047;-79
2023/12/01 06:40:48;;;;;;;38.28;13.95;;;-4.10;99.90;;;;;;5132415;27;20047;-79
2023/12/01 06:43:34;;;;;;;36.65;13.95;;;-4.10;99.90;;;;;;5131190;27;20075;-77
2023/12/01 06:46:20;;;;;;;33.25;13.02;;;-4.00;99.90;;;;;;5113286;27;20051;-77
2023/12/01 06:49:07;;;;;;;34.35;12.75;;;-4.00;99.90;;;;;;5132101;27;20111;-78
2023/12/01 06:51:53;;;;;;;37.17;13.35;;;-4.00;99.90;;;;;;5112269;27;20078;-78
2023/12/01 06:54:39;;;;;;;33.83;12.27;;;-4.00;99.90;;;;;;5130668;27;20134;-78
2023/12/01 06:57:25;;;;;;;31.20;11.90;;;-4.10;99.90;;;;;;5112172;27;20043;-77
2023/12/01 07:03:14;;;;;;;31.23;13.40;;;-4.00;99.90;;;;;;5130959;27;20154;-77
2023/12/01 07:06:00;;;;;;;36.92;13.07;;;-4.10;99.90;;;;;;5099364;27;20055;-77
2023/12/01 07:08:46;;;;;;;35.15;13.60;;;-4.00;99.90;;;;;;5099167;27;20061;-78
2023/12/01 07:11:32;;;;;;;36.28;13.25;;;-4.10;99.90;;;;;;5131239;27;20116;-78
2023/12/01 07:14:19;;;;;;;43.90;13.52;;;-4.10;99.90;;;;;;5131068;27;20104;-76
2023/12/01 07:17:07;;;;;;;34.10;12.15;;;-4.00;99.90;;;;;;5111455;27;20051;-77
2023/12/01 07:19:53;;;;;;;34.78;13.15;;;-4.00;99.90;;;;;;5113371;27;20428;-77
2023/12/01 07:22:42;;;;;;;36.17;13.02;;;-3.90;99.90;;;;;;5131686;27;20089;-79
2023/12/01 07:25:28;;;;;;;30.02;11.98;;;-3.80;99.90;;;;;;5108542;28;20104;-79
2023/12/01 07:28:14;;;;;;;40.40;15.68;;;-3.70;99.90;;;;;;5111432;28;20127;-78
2023/12/01 07:31:00;;;;;;;41.40;15.55;;;-3.60;99.90;;;;;;5111407;28;20058;-78
2023/12/01 07:33:47;;;;;;;38.15;15.02;;;-3.50;99.90;;;;;;5096139;28;20055;-79
2023/12/01 07:36:33;;;;;;;43.28;16.42;;;-3.40;99.90;;;;;;5111167;28;20484;-78
2023/12/01 07:39:22;;;;;;;41.35;14.85;;;-3.30;99.90;;;;;;5109961;28;20104;-78
2023/12/01 07:42:08;;;;;;;39.28;14.27;;;-3.30;99.90;;;;;;5111123;28;20134;-77
2023/12/01 07:44:55;;;;;;;42.58;14.30;;;-3.20;99.90;;;;;;5109630;28;20055;-77
2023/12/01 07:47:41;;;;;;;42.15;15.32;;;-3.10;99.90;;;;;;5110819;28;20547;-78
2023/12/01 07:50:27;;;;;;;51.05;16.13;;;-3.10;99.90;;;;;;5110257;28;20054;-77
2023/12/01 07:53:13;;;;;;;44.25;16.40;;;-2.90;99.90;;;;;;5110952;28;20057;-78
2023/12/01 07:55:59;;;;;;;48.95;17.88;;;-2.80;99.90;;;;;;5110370;28;20143;-78
2023/12/01 07:58:45;;;;;;;50.33;18.58;;;-2.70;99.90;;;;;;5110841;28;20131;-78
2023/12/01 08:01:31;;;;;;;48.63;18.20;;;-2.60;99.90;;;;;;5111156;28;20111;-76
2023/12/01 08:04:17;;;;;;;52.20;18.35;;;-2.50;99.90;;;;;;5111034;28;20407;-79
2023/12/01 08:07:03;;;;;;;51.78;20.45;;;-2.40;99.90;;;;;;5108608;28;20052;-77
2023/12/01 08:09:49;;;;;;;61.97;22.33;;;-2.30;99.90;;;;;;5109587;28;20108;-78
2023/12/01 08:12:35;;;;;;;60.70;20.48;;;-2.20;99.90;;;;;;5111012;28;20058;-77
2023/12/01 08:15:22;;;;;;;54.63;19.15;;;-2.10;99.90;;;;;;5110645;28;20075;-78
2023/12/01 08:18:08;;;;;;;56.95;21.33;;;-2.10;99.90;;;;;;5109959;28;20389;-78
2023/12/01 08:20:54;;;;;;;58.92;21.70;;;-2.00;99.90;;;;;;5110922;28;20097;-78
2023/12/01 08:23:40;;;;;;;60.95;22.85;;;-1.90;99.90;;;;;;5108752;28;20047;-77
2023/12/01 08:26:26;;;;;;;66.55;18.88;;;-1.90;99.90;;;;;;5110403;28;20562;-78
2023/12/01 08:29:13;;;;;;;55.65;22.65;;;-1.80;99.90;;;;;;5109351;28;20056;-78
2023/12/01 08:32:00;;;;;;;61.97;24.05;;;-1.60;99.90;;;;;;5095117;28;20052;-78
2023/12/01 08:34:46;;;;;;;61.70;22.13;;;-1.40;99.90;;;;;;5109539;28;20638;-78
2023/12/01 08:37:32;;;;;;;61.80;20.65;;;-1.20;99.90;;;;;;5110166;28;20060;-78
2023/12/01 08:40:18;;;;;;;49.38;18.85;;;-1.10;99.90;;;;;;5110450;28;20578;-76
2023/12/01 08:43:05;;;;;;;58.78;20.55;;;-0.90;99.90;;;;;;5109285;28;20047;-78
2023/12/01 08:45:51;;;;;;;55.90;19.95;;;-0.80;99.90;;;;;;5110636;28;20047;-78
2023/12/01 08:48:37;;;;;;;51.30;19.90;;;-0.70;99.90;;;;;;5110681;28;20506;-77
2023/12/01 08:51:23;;;;;;;43.45;15.68;;;-0.70;99.90;;;;;;5110194;28;20109;-78
2023/12/01 08:54:09;;;;;;;41.10;18.63;;;-0.60;99.90;;;;;;5110530;28;20057;-78
2023/12/01 08:56:56;;;;;;;45.90;18.50;;;-0.60;99.90;;;;;;5113334;28;20058;-79
2023/12/01 08:59:43;;;;;;;38.20;17.10;;;-0.60;99.90;;;;;;5114402;28;20046;-79
2023/12/01 09:02:29;;;;;;;44.97;16.45;;;-0.60;99.90;;;;;;5114545;27;20056;-79
2023/12/01 09:05:17;;;;;;;39.88;17.23;;;-0.40;99.90;;;;;;5113470;28;20491;-78
2023/12/01 09:08:05;;;;;;;47.45;19.42;;;-0.30;99.90;;;;;;5113500;28;20050;-78
2023/12/01 09:10:51;;;;;;;45.03;18.17;;;-0.10;99.90;;;;;;5113315;28;20496;-78
2023/12/01 09:13:40;;;;;;;37.53;17.20;;;0.00;99.90;;;;;;5112927;28;20048;-78
2023/12/01 09:16:26;;;;;;;39.05;16.48;;;-0.10;99.90;;;;;;5113883;28;20059;-79
2023/12/01 09:19:13;;;;;;;38.13;16.80;;;-0.10;99.90;;;;;;5112423;28;20063;-79
2023/12/01 09:21:59;;;;;;;32.25;14.70;;;0.10;99.90;;;;;;5113685;28;20096;-79
2023/12/01 09:24:46;;;;;;;32.10;14.07;;;0.20;99.90;;;;;;5112046;28;20051;-78
2023/12/01 09:27:32;;;;;;;33.00;15.00;;;0.30;99.90;;;;;;5112598;28;20052;-78
2023/12/01 09:30:18;;;;;;;34.33;14.57;;;0.40;99.90;;;;;;5097644;28;20062;-76
2023/12/01 09:33:06;;;;;;;32.35;13.85;;;0.40;99.90;;;;;;5098443;28;20103;-77
2023/12/01 09:35:52;;;;;;;31.27;14.20;;;0.60;99.90;;;;;;5112897;28;20123;-77
2023/12/01 09:38:38;;;;;;;33.45;15.60;;;0.80;99.90;;;;;;5113462;28;20047;-78
2023/12/01 09:41:24;;;;;;;33.05;15.57;;;1.10;99.90;;;;;;5113379;28;20130;-76
2023/12/01 09:44:10;;;;;;;31.08;14.43;;;1.50;99.90;;;;;;5112892;28;20048;-77
2023/12/01 09:46:58;;;;;;;27.15;13.18;;;1.80;99.90;;;;;;5112644;28;20047;-77
2023/12/01 09:49:48;;;;;;;29.08;13.65;;;1.90;99.90;;;;;;5097950;28;20055;-78
2023/12/01 09:52:34;;;;;;;26.40;11.98;;;2.30;99.90;;;;;;5113610;28;20047;-77
2023/12/01 09:55:20;;;;;;;27.23;12.35;;;2.30;99.90;;;;;;5111345;28;20066;-79
2023/12/01 09:58:07;;;;;;;25.55;13.50;;;2.30;99.90;;;;;;5113512;28;20131;-78
2023/12/01 10:00:53;;;;;;;22.33;11.07;;;2.10;99.90;;;;;;5112657;28;20044;-77
2023/12/01 10:03:38;;;;;;;27.30;12.13;;;2.00;99.90;;;;;;5111826;28;20044;-79
2023/12/01 10:06:24;;;;;;;26.00;12.13;;;1.90;99.90;;;;;;5113154;28;20138;-78
2023/12/01 10:09:12;;;;;;;26.05;12.02;;;1.80;99.90;;;;;;5112471;28;20683;-79
2023/12/01 10:12:09;;;;;;;25.60;12.13;;;1.80;99.90;;;;;;5113171;28;20051;-79
2023/12/01 10:14:56;;;;;;;24.52;12.50;;;1.80;99.90;;;;;;5112080;28;20075;-79
2023/12/01 10:17:42;;;;;;;25.48;11.73;;;1.80;99.90;;;;;;5111780;28;20113;-80
2023/12/01 10:20:29;;;;;;;27.65;13.85;;;1.70;99.90;;;;;;5112200;28;20062;-79
2023/12/01 10:23:19;;;;;;;27.45;13.27;;;1.70;99.90;;;;;;5112842;27;20492;-79
2023/12/01 10:26:07;;;;;;;27.58;14.48;;;1.70;99.90;;;;;;5112647;27;20051;-77
2023/12/01 10:28:57;;;;;;;26.77;12.70;;;1.70;99.90;;;;;;5113532;27;20051;-79
2023/12/01 10:31:47;;;;;;;24.30;11.75;;;1.70;99.90;;;;;;5131917;27;20591;-77
2023/12/01 10:34:33;;;;;;;27.20;12.57;;;1.70;99.90;;;;;;5131727;27;20570;-78
2023/12/01 10:37:21;;;;;;;23.58;11.63;;;2.10;99.90;;;;;;5113733;27;20054;-78
2023/12/01 10:40:09;;;;;;;25.33;12.32;;;2.50;99.90;;;;;;5130957;27;20147;-79
2023/12/01 10:42:55;;;;;;;23.42;11.38;;;3.10;99.90;;;;;;5113765;27;20062;-77
2023/12/01 10:45:42;;;;;;;25.65;12.85;;;3.40;99.90;;;;;;5112293;27;20055;-79
2023/12/01 10:48:30;;;;;;;24.65;11.85;;;3.40;99.90;;;;;;5131009;27;20043;-79
2023/12/01 10:51:16;;;;;;;21.30;10.45;;;3.90;99.90;;;;;;5098931;27;20064;-79
2023/12/01 10:54:03;;;;;;;26.27;13.48;;;4.70;99.90;;;;;;5100304;27;20043;-79
2023/12/01 10:57:10;;;;;;;25.08;11.45;;;5.40;99.90;;;;;;5131272;27;20050;-79
2023/12/01 11:00:00;;;;;;;25.40;12.35;;;5.80;99.90;;;;;;5113948;27;20051;-79
2023/12/01 11:02:49;;;;;;;24.02;12.07;;;6.20;99.90;;;;;;5112741;27;20145;-79
2023/12/01 11:05:36;;;;;;;26.75;12.30;;;6.20;99.90;;;;;;5131275;27;20804;-79
2023/12/01 11:08:34;;;;;;;24.85;11.65;;;6.30;99.90;;;;;;5113416;27;20059;-80
2023/12/01 11:11:23;;;;;;;23.83;10.77;;;6.80;99.90;;;;;;5131318;27;20795;-80
2023/12/01 11:14:17;;;;;;;21.23;10.70;;;7.30;99.90;;;;;;5098928;27;20062;-80
2023/12/01 11:17:04;;;;;;;22.35;10.13;;;7.70;99.90;;;;;;5130982;27;20071;-79
2023/12/01 11:19:50;;;;;;;23.02;11.40;;;7.80;99.90;;;;;;5111646;27;20168;-79
2023/12/01 11:22:37;;;;;;;19.95;9.32;;;8.50;99.90;;;;;;5116948;27;20043;-78
2023/12/01 11:25:51;;;;;;;21.88;10.43;;;8.70;99.90;;;;;;5130935;27;20055;-80
2023/12/01 11:28:45;;;;;;;20.08;10.05;;;9.30;99.90;;;;;;5131892;27;20104;-79
2023/12/01 11:34:20;;;;;;;18.30;9.80;;;8.40;99.90;;;;;;5112296;27;20410;-79
2023/12/01 11:37:06;;;;;;;19.17;9.75;;;8.90;99.90;;;;;;5113523;27;20053;-80
2023/12/01 11:40:18;;;;;;;19.88;10.07;;;9.50;99.90;;;;;;5098171;27;20089;-80
2023/12/01 11:43:07;;;;;;;18.38;9.95;;;9.60;99.00;;;;;;5112908;27;20058;-80
2023/12/01 11:45:53;;;;;;;23.38;11.48;;;10.20;99.90;;;;;;5130027;27;20043;-79
2023/12/01 11:48:39;;;;;;;21.23;11.23;;;10.20;99.90;;;;;;5111292;27;20043;-79
2023/12/01 11:51:26;;;;;;;20.45;10.70;;;10.00;99.90;;;;;;5129997;27;20782;-80
2023/12/01 11:54:12;;;;;;;19.67;11.05;;;9.70;99.30;;;;;;5115716;27;20535;-80
2023/12/01 11:56:58;;;;;;;21.02;12.02;;;9.70;99.40;;;;;;5113218;27;20093;-80
2023/12/01 11:59:45;;;;;;;20.90;11.07;;;10.10;98.80;;;;;;5129632;27;20039;-79
2023/12/01 12:02:31;;;;;;;18.58;9.60;;;10.50;98.50;;;;;;5115216;27;20134;-80
2023/12/01 12:05:17;;;;;;;18.98;10.73;;;11.30;98.10;;;;;;5113418;27;20051;-79
2023/12/01 12:08:04;;;;;;;20.63;11.27;;;11.80;97.00;;;;;;5130397;27;20042;-79
2023/12/01 12:10:50;;;;;;;19.20;11.90;;;12.10;96.50;;;;;;5129856;28;20046;-79
2023/12/01 12:13:36;;;;;;;20.58;11.25;;;12.60;95.90;;;;;;5130284;28;20061;-78
2023/12/01 12:16:23;;;;;;;19.45;10.23;;;13.10;95.70;;;;;;5111029;28;20053;-80
2023/12/01 12:19:09;;;;;;;20.70;11.63;;;13.30;94.20;;;;;;5130134;28;20050;-79
2023/12/01 12:21:55;;;;;;;21.52;11.82;;;13.80;94.90;;;;;;5129341;28;20407;-76
2023/12/01 12:24:46;;;;;;;18.25;11.43;;;13.90;94.80;;;;;;5129262;28;20055;-76
2023/12/01 12:27:43;;;;;;;19.35;11.75;;;13.70;92.50;;;;;;5129622;28;20130;-77
2023/12/01 12:30:29;;;;;;;18.42;11.13;;;12.80;92.30;;;;;;5130603;27;20082;-77
2023/12/01 12:33:16;;;;;;;20.10;11.70;;;12.70;93.50;;;;;;5115547;27;20055;-77
2023/12/01 12:36:03;;;;;;;20.58;12.77;;;12.90;93.70;;;;;;5134275;27;20134;-77
2023/12/01 12:38:50;;;;;;;20.98;11.90;;;12.60;92.20;;;;;;5133717;27;20035;-76
2023/12/01 12:41:39;;;;;;;20.35;11.90;;;13.40;93.30;;;;;;5133820;27;20491;-77
2023/12/01 12:44:27;;;;;;;20.23;11.13;;;13.10;93.00;;;;;;5115331;27;20126;-76
2023/12/01 12:47:15;;;;;;;20.95;12.35;;;13.20;91.80;;;;;;5115824;27;20411;-80
2023/12/01 12:50:01;;;;;;;19.23;11.60;;;13.30;91.70;;;;;;5132521;27;20059;-79
2023/12/01 12:52:47;;;;;;;21.88;12.80;;;13.10;92.40;;;;;;5133713;27;20059;-80
2023/12/01 12:55:33;;;;;;;19.92;12.13;;;12.80;91.50;;;;;;5133671;27;20099;-80
2023/12/01 12:58:19;;;;;;;19.30;12.63;;;12.10;91.70;;;;;;5114970;27;20051;-80
2023/12/01 13:01:05;;;;;;;18.65;11.20;;;11.50;92.60;;;;;;5133830;27;20484;-79
2023/12/01 13:03:53;;;;;;;18.00;11.18;;;10.80;93.40;;;;;;5134108;27;20043;-80
2023/12/01 13:06:39;;;;;;;24.65;12.13;;;10.10;93.80;;;;;;5115303;27;20073;-78
2023/12/01 13:09:25;;;;;;;18.90;12.05;;;9.70;95.30;;;;;;5133217;27;20502;-78
2023/12/01 13:12:11;;;;;;;20.52;11.88;;;9.20;95.70;;;;;;5133723;27;20510;-78
2023/12/01 13:14:57;;;;;;;20.10;11.50;;;8.70;96.60;;;;;;5115105;27;20062;-77
2023/12/01 13:17:44;;;;;;;19.85;11.57;;;8.00;96.70;;;;;;5133450;27;20043;-77
2023/12/01 13:20:31;;;;;;;18.25;11.38;;;7.80;97.30;;;;;;5132901;27;20569;-77
2023/12/01 13:23:18;;;;;;;18.85;11.18;;;7.40;97.40;;;;;;5132194;27;20130;-77
2023/12/01 13:26:04;;;;;;;18.98;11.25;;;7.20;98.60;;;;;;5112057;28;20399;-78
2023/12/01 13:28:50;;;;;;;21.92;11.02;;;7.30;99.60;;;;;;5113100;28;20055;-78
2023/12/01 13:31:36;;;;;;;20.95;12.70;;;7.40;99.70;;;;;;5114375;28;20055;-78
2023/12/01 13:34:23;;;;;;;20.67;11.40;;;7.30;99.30;;;;;;5113771;28;20143;-78
2023/12/01 13:37:10;;;;;;;21.63;11.02;;;7.20;99.90;;;;;;5112016;28;20116;-80
2023/12/01 13:40:00;;;;;;;17.95;10.77;;;7.30;99.90;;;;;;5114123;28;20047;-80
2023/12/01 13:42:46;;;;;;;21.20;11.50;;;7.30;99.90;;;;;;5113353;28;20044;-80
2023/12/01 13:45:32;;;;;;;19.48;11.60;;;6.60;99.90;;;;;;5113002;28;20051;-80
2023/12/01 13:48:18;;;;;;;18.48;10.77;;;6.10;99.90;;;;;;5112621;28;20584;-79
2023/12/01 13:51:04;;;;;;;21.73;11.75;;;5.80;99.90;;;;;;5113809;28;20445;-79
2023/12/01 13:53:50;;;;;;;18.77;10.63;;;5.40;99.90;;;;;;5111993;28;20054;-80
2023/12/01 13:56:36;;;;;;;22.05;10.52;;;5.20;99.90;;;;;;5112905;28;20056;-79
2023/12/01 13:59:22;;;;;;;19.33;10.45;;;5.00;99.90;;;;;;5113468;28;20048;-80
2023/12/01 14:02:08;;;;;;;19.33;10.30;;;5.00;99.90;;;;;;5113335;28;20134;-79
2023/12/01 14:04:54;;;;;;;20.92;11.32;;;5.40;99.90;;;;;;5112650;28;20134;-79
2023/12/01 14:07:41;;;;;;;19.02;10.00;;;5.50;99.90;;;;;;5113737;28;20050;-80
2023/12/01 14:10:27;;;;;;;18.63;9.88;;;5.70;99.90;;;;;;5112450;28;20466;-79
2023/12/01 14:13:13;;;;;;;19.33;10.85;;;5.70;99.90;;;;;;5112577;28;20043;-79
2023/12/01 14:15:59;;;;;;;21.48;11.18;;;5.80;99.90;;;;;;5111626;28;20047;-79